createdAt,value
2019-02-16T00:00:18.075Z,3.74
2019-02-16T00:02:55.811Z,3.75
2019-02-16T00:05:32.335Z,3.67
2019-02-16T00:08:13.223Z,3.69
2019-02-16T00:10:49.001Z,3.64
2019-02-16T00:13:27.181Z,3.56
2019-02-16T00:16:03.929Z,3.60
2019-02-16T00:18:46.758Z,3.58
2019-02-16T00:21:22.511Z,3.63
2019-02-16T00:23:57.609Z,3.64
2019-02-16T00:26:32.637Z,3.56
2019-02-16T00:38:13.835Z,3.43
2019-02-16T00:40:48.849Z,3.42
2019-02-16T00:43:25.031Z,3.48
2019-02-16T00:46:00.797Z,3.51
2019-02-16T00:48:36.899Z,3.44
2019-02-16T00:51:13.950Z,3.45
2019-02-16T00:53:50.593Z,3.47
2019-02-16T00:56:25.441Z,3.40
2019-02-16T00:59:01.251Z,3.39
2019-02-16T01:01:36.216Z,3.40
2019-02-16T01:08:33.210Z,3.41
2019-02-16T01:11:08.087Z,3.34
2019-02-16T01:13:43.712Z,3.34
2019-02-16T01:48:29.568Z,3.23
2019-02-16T02:36:06.905Z,2.89
2019-02-16T02:42:20.694Z,2.73
2019-02-16T02:45:50.585Z,2.73
2019-02-16T03:47:51.742Z,2.72
2019-02-16T03:57:44.868Z,2.93
2019-02-16T04:00:37.820Z,3.15
2019-02-16T04:06:33.311Z,3.24
2019-02-16T04:09:21.269Z,3.25
2019-02-16T04:12:08.651Z,3.36
2019-02-16T04:26:23.230Z,3.56
2019-02-16T04:29:22.347Z,3.35
2019-02-16T04:31:57.160Z,3.15
2019-02-16T04:35:09.571Z,2.98
2019-02-16T04:37:58.344Z,3.00
2019-02-16T04:40:50.018Z,2.86
2019-02-16T04:43:37.575Z,2.77
2019-02-16T04:46:22.602Z,2.70
2019-02-16T04:49:05.466Z,2.62
2019-02-16T04:52:08.576Z,2.52
2019-02-16T04:58:24.287Z,2.42
2019-02-16T05:01:00.525Z,2.32
2019-02-16T05:03:36.176Z,2.30
2019-02-16T05:06:44.883Z,2.28
2019-02-16T05:09:34.120Z,2.28
2019-02-16T05:12:23.940Z,2.29
2019-02-16T05:14:59.533Z,2.24
2019-02-16T05:17:47.178Z,2.24
2019-02-16T05:20:36.850Z,2.22
2019-02-16T05:23:27.520Z,2.08
2019-02-16T05:26:03.139Z,1.99
2019-02-16T05:28:53.093Z,1.98
2019-02-16T05:32:09.796Z,1.98
2019-02-16T05:34:45.392Z,1.96
2019-02-16T05:37:33.561Z,1.90
2019-02-16T05:40:23.444Z,1.87
2019-02-16T05:43:14.211Z,1.92
2019-02-16T05:46:03.362Z,1.93
2019-02-16T05:48:51.153Z,2.02
2019-02-16T05:51:40.636Z,2.17
2019-02-16T05:54:29.803Z,2.29
2019-02-16T05:57:05.630Z,2.45
2019-02-16T05:59:55.963Z,2.64
2019-02-16T06:02:31.574Z,2.80
2019-02-16T06:09:01.125Z,2.99
2019-02-16T06:12:02.287Z,3.31
2019-02-16T06:19:02.854Z,3.59
2019-02-16T06:25:39.083Z,3.83
2019-02-16T06:28:27.994Z,3.96
2019-02-16T06:31:16.214Z,4.03
2019-02-16T06:34:05.233Z,4.05
2019-02-16T06:36:59.118Z,4.17
2019-02-16T06:39:50.672Z,4.20
2019-02-16T06:42:35.886Z,4.13
2019-02-16T06:45:33.597Z,4.13
2019-02-16T06:48:24.814Z,4.06
2019-02-16T06:51:12.808Z,4.06
2019-02-16T06:54:01.660Z,4.15
2019-02-16T07:11:09.707Z,4.52
2019-02-16T07:13:44.654Z,4.50
2019-02-16T07:24:47.012Z,4.83
2019-02-16T07:27:23.044Z,4.87
2019-02-16T07:30:03.087Z,4.99
2019-02-16T07:36:36.280Z,5.16
2019-02-16T07:39:13.926Z,5.27
2019-02-16T07:41:49.826Z,5.42
2019-02-16T07:44:33.972Z,5.45
2019-02-16T07:47:43.078Z,5.47
2019-02-16T07:50:27.594Z,5.47
2019-02-16T07:53:31.278Z,5.51
2019-02-16T07:56:10.910Z,5.62
2019-02-16T07:59:03.612Z,5.66
2019-02-16T08:01:45.612Z,5.78
2019-02-16T08:04:43.534Z,5.92
2019-02-16T08:07:44.414Z,5.92
2019-02-16T08:10:47.652Z,5.88
2019-02-16T08:13:29.777Z,5.99
2019-02-16T08:16:34.613Z,6.07
2019-02-16T08:19:26.274Z,6.13
2019-02-16T08:22:10.606Z,6.14
2019-02-16T08:28:45.380Z,6.36
2019-02-16T08:31:39.724Z,6.50
2019-02-16T08:34:46.192Z,6.62
2019-02-16T08:37:40.972Z,6.65
2019-02-16T08:40:34.950Z,6.74
2019-02-16T08:43:29.138Z,6.82
2019-02-16T08:46:21.739Z,6.88
2019-02-16T08:49:13.744Z,6.99
2019-02-16T08:52:07.399Z,7.12
2019-02-16T08:55:02.827Z,7.17
2019-02-16T08:58:09.401Z,7.28
2019-02-16T09:01:07.821Z,7.27
2019-02-16T09:04:12.609Z,7.41
2019-02-16T09:06:57.580Z,7.53
2019-02-16T09:10:02.282Z,7.61
2019-02-16T09:12:55.133Z,7.72
2019-02-16T09:15:51.991Z,7.70
2019-02-16T09:18:45.101Z,7.86
2019-02-16T09:21:37.683Z,7.93
2019-02-16T09:24:22.110Z,7.89
2019-02-16T09:27:13.920Z,7.97
2019-02-16T09:30:07.532Z,8.22
2019-02-16T09:32:48.443Z,8.33
2019-02-16T09:35:54.295Z,8.36
2019-02-16T09:38:44.945Z,8.43
2019-02-16T09:41:38.444Z,8.54
2019-02-16T09:44:22.377Z,8.64
2019-02-16T09:47:15.729Z,8.60
2019-02-16T09:50:14.387Z,8.57
2019-02-16T09:53:06.808Z,8.70
2019-02-16T09:56:03.298Z,8.74
2019-02-16T09:58:51.021Z,8.92
2019-02-16T10:01:40.833Z,8.90
2019-02-16T10:04:34.493Z,8.94
2019-02-16T10:07:44.233Z,8.90
2019-02-16T10:10:34.571Z,9.15
2019-02-16T10:13:20.657Z,9.20
2019-02-16T10:16:29.959Z,9.39
2019-02-16T10:19:36.124Z,9.50
2019-02-16T10:22:29.927Z,9.52
2019-02-16T10:25:22.991Z,9.36
2019-02-16T10:28:10.945Z,9.53
2019-02-16T10:31:07.432Z,9.80
2019-02-16T10:33:52.064Z,9.87
2019-02-16T10:36:48.898Z,9.96
2019-02-16T10:39:49.490Z,9.92
2019-02-16T10:42:34.748Z,10.15
2019-02-16T10:45:28.906Z,10.25
2019-02-16T10:48:34.306Z,10.14
2019-02-16T10:51:21.661Z,10.08
2019-02-16T10:54:27.005Z,10.35
2019-02-16T10:57:14.237Z,10.43
2019-02-16T11:00:16.786Z,10.38
2019-02-16T11:03:13.517Z,10.39
2019-02-16T11:06:00.845Z,10.59
2019-02-16T11:09:00.627Z,10.45
2019-02-16T11:12:00.805Z,10.34
2019-02-16T11:14:52.913Z,10.78
2019-02-16T11:17:58.893Z,10.87
2019-02-16T11:20:52.602Z,10.77
2019-02-16T11:24:01.734Z,10.94
2019-02-16T11:27:04.628Z,11.17
2019-02-16T11:30:02.293Z,11.39
2019-02-16T11:32:44.019Z,11.47
2019-02-16T11:35:36.237Z,11.67
2019-02-16T11:38:28.888Z,11.78
2019-02-16T11:41:21.525Z,11.92
2019-02-16T11:44:14.251Z,11.85
2019-02-16T11:46:56.447Z,12.08
2019-02-16T11:49:53.441Z,12.10
2019-02-16T11:53:02.544Z,12.08
2019-02-16T11:55:54.561Z,12.23
2019-02-16T11:58:43.111Z,12.86
2019-02-16T12:01:35.556Z,12.84
2019-02-16T12:04:17.219Z,12.91
2019-02-16T12:06:59.225Z,13.05
2019-02-16T12:10:00.842Z,13.04
2019-02-16T12:12:50.880Z,13.51
2019-02-16T12:15:38.691Z,13.70
2019-02-16T12:18:28.766Z,13.90
2019-02-16T12:21:21.540Z,13.82
2019-02-16T12:24:12.345Z,14.15
2019-02-16T12:26:58.451Z,14.10
2019-02-16T12:29:52.175Z,14.33
2019-02-16T12:32:44.689Z,14.23
2019-02-16T12:35:42.630Z,14.43
2019-02-16T12:38:37.577Z,14.68
2019-02-16T12:41:31.435Z,14.82
2019-02-16T12:44:34.302Z,14.58
2019-02-16T12:47:26.919Z,15.36
2019-02-16T12:50:23.968Z,15.23
2019-02-16T12:53:19.047Z,15.01
2019-02-16T12:56:15.190Z,15.72
2019-02-16T12:59:02.051Z,15.78
2019-02-16T13:01:47.830Z,15.36
2019-02-16T13:04:40.382Z,16.12
2019-02-16T13:07:35.287Z,15.52
2019-02-16T13:10:44.019Z,15.54
2019-02-16T13:13:46.991Z,15.67
2019-02-16T13:16:52.793Z,16.37
2019-02-16T13:19:48.999Z,15.96
2019-02-16T13:22:34.423Z,15.93
2019-02-16T13:25:27.005Z,15.47
2019-02-16T13:28:35.833Z,15.79
2019-02-16T13:31:38.282Z,15.95
2019-02-16T13:34:31.945Z,16.27
2019-02-16T13:37:39.035Z,16.87
2019-02-16T13:40:31.622Z,16.53
2019-02-16T13:43:24.129Z,16.99
2019-02-16T13:46:16.717Z,16.71
2019-02-16T13:48:57.593Z,17.57
2019-02-16T13:51:53.965Z,17.56
2019-02-16T13:54:35.228Z,17.54
2019-02-16T13:57:23.799Z,17.40
2019-02-16T14:00:11.405Z,17.27
2019-02-16T14:03:03.899Z,17.89
2019-02-16T14:06:03.591Z,17.27
2019-02-16T14:08:57.414Z,16.32
2019-02-16T14:11:54.088Z,16.20
2019-02-16T14:14:35.259Z,16.63
2019-02-16T14:17:29.011Z,16.70
2019-02-16T14:20:03.851Z,16.18
2019-02-16T14:22:38.762Z,16.06
2019-02-16T14:25:19.510Z,16.22
2019-02-16T14:27:54.388Z,16.32
2019-02-16T14:30:29.249Z,16.17
2019-02-16T14:33:04.056Z,16.19
2019-02-16T14:35:39.041Z,16.14
2019-02-16T14:38:38.800Z,15.89
2019-02-16T14:41:14.125Z,15.99
2019-02-16T14:43:49.808Z,15.94
2019-02-16T14:46:24.624Z,15.35
2019-02-16T14:49:01.117Z,15.38
2019-02-16T14:51:36.328Z,15.91
2019-02-16T14:54:11.392Z,15.87
2019-02-16T14:56:46.174Z,15.35
2019-02-16T14:59:21.804Z,15.37
2019-02-16T15:01:56.560Z,15.15
2019-02-16T15:04:31.575Z,15.41
2019-02-16T15:07:06.447Z,15.49
2019-02-16T15:09:41.241Z,15.26
2019-02-16T15:12:16.004Z,15.04
2019-02-16T15:14:50.774Z,15.25
2019-02-16T15:17:25.666Z,14.97
2019-02-16T15:20:00.455Z,14.98
2019-02-16T15:22:35.468Z,15.01
2019-02-16T15:25:11.278Z,14.84
2019-02-16T15:27:46.103Z,14.34
2019-02-16T15:30:20.957Z,14.33
2019-02-16T15:32:55.738Z,14.15
2019-02-16T15:35:30.604Z,14.05
2019-02-16T15:38:17.994Z,13.96
2019-02-16T15:40:55.710Z,13.72
2019-02-16T15:43:30.819Z,13.68
2019-02-16T15:46:05.782Z,13.69
2019-02-16T15:48:40.600Z,13.52
2019-02-16T15:51:15.392Z,13.53
2019-02-16T15:53:50.621Z,13.50
2019-02-16T15:56:25.512Z,13.31
2019-02-16T15:59:00.489Z,13.30
2019-02-16T16:01:35.489Z,13.14
2019-02-16T16:04:11.168Z,12.96
2019-02-16T16:06:46.956Z,12.93
2019-02-16T16:09:44.769Z,12.75
2019-02-16T16:12:42.970Z,12.58
2019-02-16T16:15:28.344Z,12.46
2019-02-16T16:18:22.656Z,12.32
2019-02-16T16:21:11.306Z,12.31
2019-02-16T16:24:03.904Z,12.10
2019-02-16T16:26:52.920Z,12.05
2019-02-16T16:29:45.466Z,11.96
2019-02-16T16:32:48.321Z,11.81
2019-02-16T16:35:48.646Z,11.67
2019-02-16T16:38:52.192Z,11.47
2019-02-16T16:41:44.141Z,11.30
2019-02-16T16:44:36.790Z,11.09
2019-02-16T16:47:39.301Z,10.92
2019-02-16T16:50:31.755Z,10.74
2019-02-16T16:53:13.069Z,10.66
2019-02-16T16:55:56.324Z,10.42
2019-02-16T16:59:00.204Z,10.33
2019-02-16T17:01:49.975Z,10.21
2019-02-16T17:04:47.316Z,10.05
2019-02-16T17:07:32.538Z,9.90
2019-02-16T17:10:29.754Z,9.72
2019-02-16T17:13:17.916Z,9.61
2019-02-16T17:16:11.666Z,9.45
2019-02-16T17:19:08.204Z,9.28
2019-02-16T17:21:52.345Z,9.25
2019-02-16T17:24:44.640Z,9.19
2019-02-16T17:27:44.434Z,9.07
2019-02-16T17:30:38.054Z,8.92
2019-02-16T17:33:20.083Z,8.84
2019-02-16T17:36:02.734Z,8.82
2019-02-16T17:39:11.428Z,8.66
2019-02-16T17:42:05.156Z,8.59
2019-02-16T17:44:57.398Z,8.51
2019-02-16T17:47:56.932Z,8.54
2019-02-16T17:50:50.944Z,8.38
2019-02-16T17:53:43.355Z,8.29
2019-02-16T17:56:30.554Z,8.23
2019-02-16T17:59:20.186Z,8.15
2019-02-16T18:02:06.451Z,8.11
2019-02-16T18:05:12.406Z,8.12
2019-02-16T18:08:05.598Z,8.03
2019-02-16T18:10:52.224Z,7.97
2019-02-16T18:13:51.990Z,7.90
2019-02-16T18:16:32.379Z,7.92
2019-02-16T18:19:13.092Z,7.85
2019-02-16T18:21:56.299Z,7.85
2019-02-16T18:24:52.986Z,7.88
2019-02-16T18:27:44.954Z,7.78
2019-02-16T18:30:37.150Z,7.69
2019-02-16T18:33:34.834Z,7.69
2019-02-16T18:36:14.440Z,7.59
2019-02-16T18:39:20.088Z,7.49
2019-02-16T18:42:13.825Z,7.47
2019-02-16T18:45:04.849Z,7.39
2019-02-16T18:47:54.322Z,7.42
2019-02-16T18:50:47.681Z,7.43
2019-02-16T18:53:50.478Z,7.37
2019-02-16T18:56:37.186Z,7.60
2019-02-16T18:59:28.510Z,7.54
2019-02-16T19:02:25.475Z,7.52
2019-02-16T19:05:21.008Z,7.57
2019-02-16T19:08:15.969Z,7.67
2019-02-16T19:11:00.313Z,7.76
2019-02-16T19:13:57.833Z,7.71
2019-02-16T19:16:50.546Z,7.73
2019-02-16T19:19:45.486Z,7.64
2019-02-16T19:22:54.512Z,7.56
2019-02-16T19:25:43.677Z,7.60
2019-02-16T19:28:37.322Z,7.48
2019-02-16T19:34:56.128Z,7.38
2019-02-16T19:37:45.705Z,7.38
2019-02-16T19:40:29.887Z,7.26
2019-02-16T19:43:39.659Z,7.33
2019-02-16T19:46:47.428Z,7.45
2019-02-16T19:49:42.750Z,7.62
2019-02-16T19:52:36.374Z,7.73
2019-02-16T19:55:42.500Z,7.90
2019-02-16T19:58:43.661Z,8.02
2019-02-16T20:01:28.611Z,7.97
2019-02-16T20:04:32.504Z,7.95
2019-02-16T20:07:29.177Z,7.95
2019-02-16T20:10:14.097Z,7.87
2019-02-16T20:13:07.790Z,7.75
2019-02-16T20:15:49.468Z,7.67
2019-02-16T20:18:36.516Z,7.59
2019-02-16T20:21:26.520Z,7.54
2019-02-16T20:24:38.070Z,7.52
2019-02-16T20:27:37.375Z,7.45
2019-02-16T20:30:28.951Z,7.34
2019-02-16T20:33:18.667Z,7.24
2019-02-16T20:36:12.843Z,7.15
2019-02-16T20:39:12.512Z,7.14
2019-02-16T20:42:30.476Z,6.99
2019-02-16T20:45:23.103Z,7.01
2019-02-16T20:48:15.695Z,6.85
2019-02-16T20:51:18.550Z,6.83
2019-02-16T20:54:15.356Z,6.76
2019-02-16T20:57:12.722Z,6.72
2019-02-16T21:00:04.711Z,6.66
2019-02-16T21:02:46.284Z,6.63
2019-02-16T21:05:43.066Z,6.56
2019-02-16T21:08:30.970Z,6.46
2019-02-16T21:11:15.933Z,6.49
2019-02-16T21:14:09.254Z,6.40
2019-02-16T21:17:02.609Z,6.35
2019-02-16T21:19:59.286Z,6.35
2019-02-16T21:22:47.119Z,6.29
2019-02-16T21:25:49.755Z,6.20
2019-02-16T21:28:44.257Z,6.18
2019-02-16T21:34:50.683Z,6.03
2019-02-16T21:37:45.337Z,5.96
2019-02-16T21:40:45.311Z,5.96
2019-02-16T21:43:34.173Z,5.92
2019-02-16T21:46:28.859Z,5.88
2019-02-16T21:49:24.751Z,5.82
2019-02-16T21:52:25.682Z,5.76
2019-02-16T21:55:24.192Z,5.68
2019-02-16T21:58:08.881Z,5.68
2019-02-16T22:01:04.657Z,5.68
2019-02-16T22:03:57.717Z,5.63
2019-02-16T22:06:52.207Z,5.56
2019-02-16T22:09:38.209Z,5.57
2019-02-16T22:15:52.413Z,5.52
2019-02-16T22:18:27.272Z,5.45
2019-02-16T22:21:02.919Z,5.49
2019-02-16T22:23:38.545Z,5.43
2019-02-16T22:26:13.448Z,5.51
2019-02-16T22:28:49.091Z,5.46
2019-02-16T22:31:24.003Z,5.40
2019-02-16T22:33:58.881Z,5.42
2019-02-16T22:36:33.711Z,5.42
2019-02-16T22:39:15.545Z,5.33
2019-02-16T22:41:51.351Z,5.35
2019-02-16T22:44:26.155Z,5.34
2019-02-16T22:47:01.059Z,5.37
2019-02-16T22:49:35.829Z,5.20
2019-02-16T22:52:12.272Z,5.19
2019-02-16T22:54:47.481Z,5.15
2019-02-16T22:57:22.296Z,5.09
2019-02-16T22:59:57.915Z,5.14
2019-02-16T23:02:35.953Z,5.09
2019-02-16T23:05:13.251Z,4.99
2019-02-16T23:07:49.212Z,5.12
2019-02-16T23:10:24.877Z,5.02
2019-02-16T23:13:00.528Z,4.90
2019-02-16T23:15:36.304Z,4.94
2019-02-16T23:18:11.090Z,4.94
2019-02-16T23:20:47.806Z,4.88
2019-02-16T23:23:22.775Z,4.82
2019-02-16T23:26:10.647Z,4.79
2019-02-16T23:28:45.403Z,4.75
2019-02-16T23:31:21.114Z,4.76
2019-02-16T23:33:56.954Z,4.79
2019-02-16T23:36:39.717Z,4.74
2019-02-16T23:39:15.509Z,4.62
2019-02-16T23:42:05.651Z,4.57
2019-02-16T23:44:40.358Z,4.71
2019-02-16T23:47:15.012Z,4.63
2019-02-16T23:49:50.732Z,4.62
2019-02-16T23:52:47.062Z,4.54
2019-02-16T23:55:22.742Z,4.57
2019-02-16T23:57:58.451Z,4.53
